sensor_id;sensor_type;location;lat;lon;timestamp;P1;durP1;ratioP1;P2;durP2;ratioP2
35205;SDS011;46555;45.620;13.796;2022-09-03T00:01:09;2.38;;;1.73;;
35205;SDS011;46555;45.620;13.796;2022-09-03T00:03:44;2.22;;;1.95;;
35205;SDS011;46555;45.620;13.796;2022-09-03T00:06:26;3.45;;;2.08;;
35205;SDS011;46555;45.620;13.796;2022-09-03T00:14:41;2.47;;;2.10;;
35205;SDS011;46555;45.620;13.796;2022-09-03T00:17:19;2.22;;;2.00;;
35205;SDS011;46555;45.620;13.796;2022-09-03T00:19:55;8.05;;;2.10;;
35205;SDS011;46555;45.620;13.796;2022-09-03T00:22:34;2.35;;;2.10;;
35205;SDS011;46555;45.620;13.796;2022-09-03T00:25:04;3.42;;;1.90;;
35205;SDS011;46555;45.620;13.796;2022-09-03T00:27:36;2.08;;;1.77;;
35205;SDS011;46555;45.620;13.796;2022-09-03T00:30:07;2.95;;;2.13;;
35205;SDS011;46555;45.620;13.796;2022-09-03T00:32:40;1.88;;;1.70;;
35205;SDS011;46555;45.620;13.796;2022-09-03T00:35:14;4.10;;;1.98;;
35205;SDS011;46555;45.620;13.796;2022-09-03T00:37:52;3.28;;;1.92;;
35205;SDS011;46555;45.620;13.796;2022-09-03T00:40:30;2.00;;;1.80;;
35205;SDS011;46555;45.620;13.796;2022-09-03T00:43:14;1.98;;;1.83;;
35205;SDS011;46555;45.620;13.796;2022-09-03T00:46:00;6.22;;;2.30;;
35205;SDS011;46555;45.620;13.796;2022-09-03T00:51:26;2.67;;;1.80;;
35205;SDS011;46555;45.620;13.796;2022-09-03T01:02:00;3.72;;;2.05;;
35205;SDS011;46555;45.620;13.796;2022-09-03T01:07:21;4.78;;;1.75;;
35205;SDS011;46555;45.620;13.796;2022-09-03T01:10:04;2.95;;;1.98;;
35205;SDS011;46555;45.620;13.796;2022-09-03T01:13:01;2.60;;;1.95;;
35205;SDS011;46555;45.620;13.796;2022-09-03T01:18:23;2.97;;;1.73;;
35205;SDS011;46555;45.620;13.796;2022-09-03T01:24:01;5.80;;;2.08;;
35205;SDS011;46555;45.620;13.796;2022-09-03T01:26:44;2.85;;;1.90;;
35205;SDS011;46555;45.620;13.796;2022-09-03T01:29:33;4.28;;;2.10;;
35205;SDS011;46555;45.620;13.796;2022-09-03T01:32:26;4.05;;;2.22;;
35205;SDS011;46555;45.620;13.796;2022-09-03T01:46:09;4.95;;;2.00;;
35205;SDS011;46555;45.620;13.796;2022-09-03T01:48:56;5.15;;;1.95;;
35205;SDS011;46555;45.620;13.796;2022-09-03T01:54:30;2.00;;;1.80;;
35205;SDS011;46555;45.620;13.796;2022-09-03T02:00:04;2.63;;;1.75;;
35205;SDS011;46555;45.620;13.796;2022-09-03T02:02:37;2.58;;;1.90;;
35205;SDS011;46555;45.620;13.796;2022-09-03T02:07:39;2.47;;;2.08;;
35205;SDS011;46555;45.620;13.796;2022-09-03T02:10:13;2.10;;;1.88;;
35205;SDS011;46555;45.620;13.796;2022-09-03T02:12:42;2.30;;;2.10;;
35205;SDS011;46555;45.620;13.796;2022-09-03T02:15:13;1.90;;;1.60;;
35205;SDS011;46555;45.620;13.796;2022-09-03T02:17:43;2.40;;;1.85;;
35205;SDS011;46555;45.620;13.796;2022-09-03T02:20:14;5.18;;;2.30;;
35205;SDS011;46555;45.620;13.796;2022-09-03T02:22:44;4.57;;;1.80;;
35205;SDS011;46555;45.620;13.796;2022-09-03T02:25:12;2.03;;;1.83;;
35205;SDS011;46555;45.620;13.796;2022-09-03T02:27:38;4.28;;;1.83;;
35205;SDS011;46555;45.620;13.796;2022-09-03T02:30:05;2.30;;;1.85;;
35205;SDS011;46555;45.620;13.796;2022-09-03T02:32:31;3.08;;;2.00;;
35205;SDS011;46555;45.620;13.796;2022-09-03T02:34:57;3.55;;;1.95;;
35205;SDS011;46555;45.620;13.796;2022-09-03T02:37:23;2.05;;;1.85;;
35205;SDS011;46555;45.620;13.796;2022-09-03T02:39:49;3.88;;;2.10;;
35205;SDS011;46555;45.620;13.796;2022-09-03T02:42:18;2.60;;;2.10;;
35205;SDS011;46555;45.620;13.796;2022-09-03T02:44:48;3.97;;;2.30;;
35205;SDS011;46555;45.620;13.796;2022-09-03T02:47:17;4.22;;;1.90;;
35205;SDS011;46555;45.620;13.796;2022-09-03T02:49:46;2.08;;;1.75;;
35205;SDS011;46555;45.620;13.796;2022-09-03T02:52:12;2.53;;;1.77;;
35205;SDS011;46555;45.620;13.796;2022-09-03T02:54:39;1.80;;;1.70;;
35205;SDS011;46555;45.620;13.796;2022-09-03T02:57:09;3.53;;;1.65;;
35205;SDS011;46555;45.620;13.796;2022-09-03T02:59:38;3.25;;;1.83;;
35205;SDS011;46555;45.620;13.796;2022-09-03T03:02:04;2.55;;;1.80;;
35205;SDS011;46555;45.620;13.796;2022-09-03T03:04:30;2.28;;;1.88;;
35205;SDS011;46555;45.620;13.796;2022-09-03T03:06:56;4.47;;;1.98;;
35205;SDS011;46555;45.620;13.796;2022-09-03T03:09:22;5.32;;;2.10;;
35205;SDS011;46555;45.620;13.796;2022-09-03T03:11:48;2.42;;;1.92;;
35205;SDS011;46555;45.620;13.796;2022-09-03T03:14:15;1.98;;;1.60;;
35205;SDS011;46555;45.620;13.796;2022-09-03T03:16:42;3.78;;;1.90;;
35205;SDS011;46555;45.620;13.796;2022-09-03T03:19:08;2.40;;;2.00;;
35205;SDS011;46555;45.620;13.796;2022-09-03T03:21:34;2.90;;;1.92;;
35205;SDS011;46555;45.620;13.796;2022-09-03T03:24:02;3.85;;;1.70;;
35205;SDS011;46555;45.620;13.796;2022-09-03T03:26:28;2.55;;;2.05;;
35205;SDS011;46555;45.620;13.796;2022-09-03T03:28:55;7.47;;;1.92;;
35205;SDS011;46555;45.620;13.796;2022-09-03T03:31:23;2.95;;;2.00;;
35205;SDS011;46555;45.620;13.796;2022-09-03T03:33:56;3.53;;;1.80;;
35205;SDS011;46555;45.620;13.796;2022-09-03T03:36:24;3.05;;;2.08;;
35205;SDS011;46555;45.620;13.796;2022-09-03T03:38:55;2.17;;;1.80;;
35205;SDS011;46555;45.620;13.796;2022-09-03T03:41:23;2.33;;;1.90;;
35205;SDS011;46555;45.620;13.796;2022-09-03T03:43:53;1.45;;;1.35;;
35205;SDS011;46555;45.620;13.796;2022-09-03T03:46:20;2.80;;;1.80;;
35205;SDS011;46555;45.620;13.796;2022-09-03T03:48:48;3.22;;;1.90;;
35205;SDS011;46555;45.620;13.796;2022-09-03T03:51:14;2.38;;;1.77;;
35205;SDS011;46555;45.620;13.796;2022-09-03T03:53:41;2.35;;;1.80;;
35205;SDS011;46555;45.620;13.796;2022-09-03T03:56:08;2.35;;;1.77;;
35205;SDS011;46555;45.620;13.796;2022-09-03T03:58:36;3.72;;;2.03;;
35205;SDS011;46555;45.620;13.796;2022-09-03T04:01:06;2.25;;;1.80;;
35205;SDS011;46555;45.620;13.796;2022-09-03T04:03:34;4.60;;;1.80;;
35205;SDS011;46555;45.620;13.796;2022-09-03T04:06:00;2.85;;;1.98;;
35205;SDS011;46555;45.620;13.796;2022-09-03T04:08:26;2.20;;;2.00;;
35205;SDS011;46555;45.620;13.796;2022-09-03T04:10:53;3.78;;;2.08;;
35205;SDS011;46555;45.620;13.796;2022-09-03T04:13:18;2.25;;;1.88;;
35205;SDS011;46555;45.620;13.796;2022-09-03T04:15:44;1.88;;;1.77;;
35205;SDS011;46555;45.620;13.796;2022-09-03T04:18:10;2.03;;;1.83;;
35205;SDS011;46555;45.620;13.796;2022-09-03T04:20:37;2.92;;;2.10;;
35205;SDS011;46555;45.620;13.796;2022-09-03T04:23:03;2.72;;;2.10;;
35205;SDS011;46555;45.620;13.796;2022-09-03T04:25:30;2.92;;;2.20;;
35205;SDS011;46555;45.620;13.796;2022-09-03T04:27:56;3.13;;;1.75;;
35205;SDS011;46555;45.620;13.796;2022-09-03T04:30:22;3.50;;;2.00;;
35205;SDS011;46555;45.620;13.796;2022-09-03T04:32:50;2.50;;;1.77;;
35205;SDS011;46555;45.620;13.796;2022-09-03T04:35:20;5.03;;;2.13;;
35205;SDS011;46555;45.620;13.796;2022-09-03T04:37:46;2.40;;;1.70;;
35205;SDS011;46555;45.620;13.796;2022-09-03T04:40:12;2.45;;;1.90;;
35205;SDS011;46555;45.620;13.796;2022-09-03T04:42:38;3.17;;;2.03;;
35205;SDS011;46555;45.620;13.796;2022-09-03T04:45:04;2.13;;;1.90;;
35205;SDS011;46555;45.620;13.796;2022-09-03T04:47:30;2.60;;;2.10;;
35205;SDS011;46555;45.620;13.796;2022-09-03T04:49:56;2.08;;;1.85;;
35205;SDS011;46555;45.620;13.796;2022-09-03T04:52:22;2.38;;;1.63;;
35205;SDS011;46555;45.620;13.796;2022-09-03T04:54:48;3.63;;;2.20;;
35205;SDS011;46555;45.620;13.796;2022-09-03T04:57:14;2.72;;;2.13;;
35205;SDS011;46555;45.620;13.796;2022-09-03T04:59:40;3.70;;;1.92;;
35205;SDS011;46555;45.620;13.796;2022-09-03T05:02:07;5.32;;;2.30;;
35205;SDS011;46555;45.620;13.796;2022-09-03T05:04:33;2.15;;;1.90;;
35205;SDS011;46555;45.620;13.796;2022-09-03T05:06:59;2.60;;;1.90;;
35205;SDS011;46555;45.620;13.796;2022-09-03T05:09:25;4.70;;;2.10;;
35205;SDS011;46555;45.620;13.796;2022-09-03T05:11:51;2.35;;;1.80;;
35205;SDS011;46555;45.620;13.796;2022-09-03T05:14:17;3.10;;;1.85;;
35205;SDS011;46555;45.620;13.796;2022-09-03T05:16:42;3.50;;;2.03;;
35205;SDS011;46555;45.620;13.796;2022-09-03T05:19:08;2.53;;;1.92;;
35205;SDS011;46555;45.620;13.796;2022-09-03T05:21:34;2.33;;;2.00;;
35205;SDS011;46555;45.620;13.796;2022-09-03T05:24:01;3.35;;;1.83;;
35205;SDS011;46555;45.620;13.796;2022-09-03T05:26:28;3.72;;;1.80;;
35205;SDS011;46555;45.620;13.796;2022-09-03T05:28:57;6.03;;;1.63;;
35205;SDS011;46555;45.620;13.796;2022-09-03T05:31:24;2.33;;;1.83;;
35205;SDS011;46555;45.620;13.796;2022-09-03T05:33:55;4.90;;;1.60;;
35205;SDS011;46555;45.620;13.796;2022-09-03T05:36:24;6.00;;;2.20;;
35205;SDS011;46555;45.620;13.796;2022-09-03T05:38:52;6.65;;;2.20;;
35205;SDS011;46555;45.620;13.796;2022-09-03T05:41:20;2.25;;;1.77;;
35205;SDS011;46555;45.620;13.796;2022-09-03T05:43:48;3.00;;;1.70;;
35205;SDS011;46555;45.620;13.796;2022-09-03T05:46:20;1.80;;;1.70;;
35205;SDS011;46555;45.620;13.796;2022-09-03T05:48:51;3.70;;;2.00;;
35205;SDS011;46555;45.620;13.796;2022-09-03T05:51:17;2.28;;;2.08;;
35205;SDS011;46555;45.620;13.796;2022-09-03T05:53:44;1.65;;;1.55;;
35205;SDS011;46555;45.620;13.796;2022-09-03T05:56:12;2.08;;;1.83;;
35205;SDS011;46555;45.620;13.796;2022-09-03T05:58:43;3.13;;;1.50;;
35205;SDS011;46555;45.620;13.796;2022-09-03T06:01:12;2.10;;;1.90;;
35205;SDS011;46555;45.620;13.796;2022-09-03T06:03:47;2.90;;;1.60;;
35205;SDS011;46555;45.620;13.796;2022-09-03T06:06:27;5.90;;;1.88;;
35205;SDS011;46555;45.620;13.796;2022-09-03T06:08:55;4.25;;;2.00;;
35205;SDS011;46555;45.620;13.796;2022-09-03T06:11:29;6.82;;;1.90;;
35205;SDS011;46555;45.620;13.796;2022-09-03T06:13:56;2.65;;;1.67;;
35205;SDS011;46555;45.620;13.796;2022-09-03T06:16:26;2.97;;;1.73;;
35205;SDS011;46555;45.620;13.796;2022-09-03T06:18:52;2.97;;;2.00;;
35205;SDS011;46555;45.620;13.796;2022-09-03T06:21:18;2.60;;;1.88;;
35205;SDS011;46555;45.620;13.796;2022-09-03T06:23:54;2.63;;;1.90;;
35205;SDS011;46555;45.620;13.796;2022-09-03T06:26:21;2.17;;;1.85;;
35205;SDS011;46555;45.620;13.796;2022-09-03T06:28:48;2.85;;;1.58;;
35205;SDS011;46555;45.620;13.796;2022-09-03T06:31:15;3.40;;;1.80;;
35205;SDS011;46555;45.620;13.796;2022-09-03T06:33:42;3.75;;;1.83;;
35205;SDS011;46555;45.620;13.796;2022-09-03T06:36:09;2.55;;;1.63;;
35205;SDS011;46555;45.620;13.796;2022-09-03T06:38:40;1.70;;;1.60;;
35205;SDS011;46555;45.620;13.796;2022-09-03T06:41:07;1.73;;;1.63;;
35205;SDS011;46555;45.620;13.796;2022-09-03T06:43:36;2.08;;;1.75;;
35205;SDS011;46555;45.620;13.796;2022-09-03T06:46:10;5.30;;;1.95;;
35205;SDS011;46555;45.620;13.796;2022-09-03T06:48:38;3.25;;;1.55;;
35205;SDS011;46555;45.620;13.796;2022-09-03T06:51:11;2.72;;;1.77;;
35205;SDS011;46555;45.620;13.796;2022-09-03T06:53:42;5.53;;;1.55;;
35205;SDS011;46555;45.620;13.796;2022-09-03T06:56:13;2.83;;;1.58;;
35205;SDS011;46555;45.620;13.796;2022-09-03T06:58:42;2.05;;;1.85;;
35205;SDS011;46555;45.620;13.796;2022-09-03T07:01:11;1.50;;;1.40;;
35205;SDS011;46555;45.620;13.796;2022-09-03T07:03:47;1.52;;;1.40;;
35205;SDS011;46555;45.620;13.796;2022-09-03T07:06:21;1.58;;;1.48;;
35205;SDS011;46555;45.620;13.796;2022-09-03T07:08:47;2.55;;;1.70;;
35205;SDS011;46555;45.620;13.796;2022-09-03T07:11:14;2.10;;;1.77;;
35205;SDS011;46555;45.620;13.796;2022-09-03T07:13:44;3.03;;;1.50;;
35205;SDS011;46555;45.620;13.796;2022-09-03T07:16:19;2.22;;;1.70;;
35205;SDS011;46555;45.620;13.796;2022-09-03T07:18:46;5.18;;;1.30;;
35205;SDS011;46555;45.620;13.796;2022-09-03T07:21:14;1.58;;;1.48;;
35205;SDS011;46555;45.620;13.796;2022-09-03T07:23:41;4.55;;;1.70;;
35205;SDS011;46555;45.620;13.796;2022-09-03T07:26:11;2.25;;;1.33;;
35205;SDS011;46555;45.620;13.796;2022-09-03T07:31:06;1.50;;;1.40;;
35205;SDS011;46555;45.620;13.796;2022-09-03T07:33:35;2.40;;;1.40;;
35205;SDS011;46555;45.620;13.796;2022-09-03T07:36:06;1.58;;;1.45;;
35205;SDS011;46555;45.620;13.796;2022-09-03T07:38:34;4.35;;;1.98;;
35205;SDS011;46555;45.620;13.796;2022-09-03T07:41:01;2.55;;;1.50;;
35205;SDS011;46555;45.620;13.796;2022-09-03T07:43:32;2.72;;;1.55;;
35205;SDS011;46555;45.620;13.796;2022-09-03T07:46:11;4.75;;;1.63;;
35205;SDS011;46555;45.620;13.796;2022-09-03T07:48:38;5.13;;;1.65;;
35205;SDS011;46555;45.620;13.796;2022-09-03T07:51:05;2.00;;;1.50;;
35205;SDS011;46555;45.620;13.796;2022-09-03T07:53:31;2.65;;;1.70;;
35205;SDS011;46555;45.620;13.796;2022-09-03T07:56:07;4.88;;;1.90;;
35205;SDS011;46555;45.620;13.796;2022-09-03T07:58:34;2.00;;;1.77;;
35205;SDS011;46555;45.620;13.796;2022-09-03T08:01:05;2.80;;;1.55;;
35205;SDS011;46555;45.620;13.796;2022-09-03T08:03:38;5.35;;;1.70;;
35205;SDS011;46555;45.620;13.796;2022-09-03T08:06:08;2.70;;;1.33;;
35205;SDS011;46555;45.620;13.796;2022-09-03T08:08:34;1.45;;;1.35;;
35205;SDS011;46555;45.620;13.796;2022-09-03T08:11:05;2.20;;;1.58;;
35205;SDS011;46555;45.620;13.796;2022-09-03T08:13:38;1.48;;;1.38;;
35205;SDS011;46555;45.620;13.796;2022-09-03T08:16:07;2.53;;;1.40;;
35205;SDS011;46555;45.620;13.796;2022-09-03T08:18:33;1.77;;;1.42;;
35205;SDS011;46555;45.620;13.796;2022-09-03T08:21:09;2.97;;;1.23;;
35205;SDS011;46555;45.620;13.796;2022-09-03T08:23:40;9.15;;;1.52;;
35205;SDS011;46555;45.620;13.796;2022-09-03T08:26:17;3.28;;;1.17;;
35205;SDS011;46555;45.620;13.796;2022-09-03T08:28:44;3.00;;;1.27;;
35205;SDS011;46555;45.620;13.796;2022-09-03T08:31:12;2.20;;;1.60;;
35205;SDS011;46555;45.620;13.796;2022-09-03T08:33:40;2.15;;;1.60;;
35205;SDS011;46555;45.620;13.796;2022-09-03T08:36:17;1.50;;;1.40;;
35205;SDS011;46555;45.620;13.796;2022-09-03T08:38:48;3.33;;;1.38;;
35205;SDS011;46555;45.620;13.796;2022-09-03T08:41:19;2.45;;;1.55;;
35205;SDS011;46555;45.620;13.796;2022-09-03T08:46:32;4.47;;;1.77;;
35205;SDS011;46555;45.620;13.796;2022-09-03T08:49:32;2.42;;;1.58;;
35205;SDS011;46555;45.620;13.796;2022-09-03T08:52:00;2.28;;;1.60;;
35205;SDS011;46555;45.620;13.796;2022-09-03T08:54:30;1.50;;;1.30;;
35205;SDS011;46555;45.620;13.796;2022-09-03T08:56:58;7.28;;;1.30;;
35205;SDS011;46555;45.620;13.796;2022-09-03T08:59:26;1.45;;;1.35;;
35205;SDS011;46555;45.620;13.796;2022-09-03T09:01:55;1.27;;;1.00;;
35205;SDS011;46555;45.620;13.796;2022-09-03T09:21:07;2.72;;;1.50;;
35205;SDS011;46555;45.620;13.796;2022-09-03T09:26:11;2.53;;;1.55;;
35205;SDS011;46555;45.620;13.796;2022-09-03T09:28:40;3.00;;;1.35;;
35205;SDS011;46555;45.620;13.796;2022-09-03T09:31:09;8.23;;;1.80;;
35205;SDS011;46555;45.620;13.796;2022-09-03T09:33:39;2.70;;;1.20;;
35205;SDS011;46555;45.620;13.796;2022-09-03T09:36:06;3.13;;;1.60;;
35205;SDS011;46555;45.620;13.796;2022-09-03T09:38:36;2.55;;;1.42;;
35205;SDS011;46555;45.620;13.796;2022-09-03T09:41:10;5.93;;;1.48;;
35205;SDS011;46555;45.620;13.796;2022-09-03T09:43:40;8.98;;;1.40;;
35205;SDS011;46555;45.620;13.796;2022-09-03T09:46:30;5.32;;;1.27;;
35205;SDS011;46555;45.620;13.796;2022-09-03T09:48:57;4.50;;;1.42;;
35205;SDS011;46555;45.620;13.796;2022-09-03T09:56:36;2.85;;;1.23;;
35205;SDS011;46555;45.620;13.796;2022-09-03T09:59:05;3.33;;;1.40;;
35205;SDS011;46555;45.620;13.796;2022-09-03T10:01:33;2.50;;;1.10;;
35205;SDS011;46555;45.620;13.796;2022-09-03T10:04:10;3.88;;;1.50;;
35205;SDS011;46555;45.620;13.796;2022-09-03T10:06:37;2.60;;;1.33;;
35205;SDS011;46555;45.620;13.796;2022-09-03T10:09:20;3.80;;;1.38;;
35205;SDS011;46555;45.620;13.796;2022-09-03T10:12:07;1.83;;;1.15;;
35205;SDS011;46555;45.620;13.796;2022-09-03T10:15:07;4.60;;;1.15;;
35205;SDS011;46555;45.620;13.796;2022-09-03T10:17:56;3.22;;;1.50;;
35205;SDS011;46555;45.620;13.796;2022-09-03T10:23:23;3.90;;;1.48;;
35205;SDS011;46555;45.620;13.796;2022-09-03T10:26:02;3.50;;;1.38;;
35205;SDS011;46555;45.620;13.796;2022-09-03T10:28:39;2.38;;;1.60;;
35205;SDS011;46555;45.620;13.796;2022-09-03T10:31:26;3.28;;;1.42;;
35205;SDS011;46555;45.620;13.796;2022-09-03T10:39:21;1.73;;;1.42;;
35205;SDS011;46555;45.620;13.796;2022-09-03T10:42:11;1.30;;;1.20;;
35205;SDS011;46555;45.620;13.796;2022-09-03T10:52:50;1.40;;;1.30;;
35205;SDS011;46555;45.620;13.796;2022-09-03T10:55:54;2.85;;;1.40;;
35205;SDS011;46555;45.620;13.796;2022-09-03T11:01:19;4.78;;;1.58;;
35205;SDS011;46555;45.620;13.796;2022-09-03T11:09:21;4.28;;;1.48;;
35205;SDS011;46555;45.620;13.796;2022-09-03T11:11:52;3.65;;;1.58;;
35205;SDS011;46555;45.620;13.796;2022-09-03T11:14:30;1.48;;;1.30;;
35205;SDS011;46555;45.620;13.796;2022-09-03T11:17:27;3.08;;;1.55;;
35205;SDS011;46555;45.620;13.796;2022-09-03T11:22:50;7.72;;;1.77;;
35205;SDS011;46555;45.620;13.796;2022-09-03T11:25:19;4.85;;;1.60;;
35205;SDS011;46555;45.620;13.796;2022-09-03T11:33:55;2.45;;;1.50;;
35205;SDS011;46555;45.620;13.796;2022-09-03T11:36:30;3.75;;;1.25;;
35205;SDS011;46555;45.620;13.796;2022-09-03T11:38:57;2.55;;;1.35;;
35205;SDS011;46555;45.620;13.796;2022-09-03T11:41:28;5.28;;;1.60;;
35205;SDS011;46555;45.620;13.796;2022-09-03T11:44:17;1.58;;;1.48;;
35205;SDS011;46555;45.620;13.796;2022-09-03T11:46:57;2.67;;;1.60;;
35205;SDS011;46555;45.620;13.796;2022-09-03T11:49:27;1.88;;;1.55;;
35205;SDS011;46555;45.620;13.796;2022-09-03T11:51:59;2.07;;;1.83;;
35205;SDS011;46555;45.620;13.796;2022-09-03T11:54:26;2.13;;;1.90;;
35205;SDS011;46555;45.620;13.796;2022-09-03T11:57:03;3.38;;;1.92;;
35205;SDS011;46555;45.620;13.796;2022-09-03T11:59:36;5.55;;;1.75;;
35205;SDS011;46555;45.620;13.796;2022-09-03T12:02:08;5.47;;;1.60;;
35205;SDS011;46555;45.620;13.796;2022-09-03T12:10:10;3.17;;;1.77;;
35205;SDS011;46555;45.620;13.796;2022-09-03T12:12:42;3.78;;;1.85;;
35205;SDS011;46555;45.620;13.796;2022-09-03T12:15:37;3.08;;;1.90;;
35205;SDS011;46555;45.620;13.796;2022-09-03T12:18:30;2.10;;;1.40;;
35205;SDS011;46555;45.620;13.796;2022-09-03T12:21:00;3.53;;;1.40;;
35205;SDS011;46555;45.620;13.796;2022-09-03T12:23:42;7.13;;;1.60;;
35205;SDS011;46555;45.620;13.796;2022-09-03T12:26:22;6.88;;;1.77;;
35205;SDS011;46555;45.620;13.796;2022-09-03T12:29:00;15.70;;;1.98;;
35205;SDS011;46555;45.620;13.796;2022-09-03T12:31:27;3.50;;;1.48;;
35205;SDS011;46555;45.620;13.796;2022-09-03T12:34:02;1.73;;;1.55;;
35205;SDS011;46555;45.620;13.796;2022-09-03T12:36:40;4.47;;;1.80;;
35205;SDS011;46555;45.620;13.796;2022-09-03T12:39:26;8.50;;;1.83;;
35205;SDS011;46555;45.620;13.796;2022-09-03T12:44:31;4.50;;;1.50;;
35205;SDS011;46555;45.620;13.796;2022-09-03T12:47:05;2.53;;;1.63;;
35205;SDS011;46555;45.620;13.796;2022-09-03T12:49:36;5.28;;;1.70;;
35205;SDS011;46555;45.620;13.796;2022-09-03T12:52:10;2.67;;;1.63;;
35205;SDS011;46555;45.620;13.796;2022-09-03T12:54:47;3.22;;;1.60;;
35205;SDS011;46555;45.620;13.796;2022-09-03T12:57:44;3.40;;;1.70;;
35205;SDS011;46555;45.620;13.796;2022-09-03T13:00:17;2.63;;;1.48;;
35205;SDS011;46555;45.620;13.796;2022-09-03T13:05:19;5.43;;;1.80;;
35205;SDS011;46555;45.620;13.796;2022-09-03T13:07:53;3.63;;;1.40;;
35205;SDS011;46555;45.620;13.796;2022-09-03T13:10:24;3.42;;;1.67;;
35205;SDS011;46555;45.620;13.796;2022-09-03T13:12:57;2.00;;;1.80;;
35205;SDS011;46555;45.620;13.796;2022-09-03T13:15:27;6.72;;;1.70;;
35205;SDS011;46555;45.620;13.796;2022-09-03T13:21:01;1.90;;;1.60;;
35205;SDS011;46555;45.620;13.796;2022-09-03T13:32:01;2.80;;;1.40;;
35205;SDS011;46555;45.620;13.796;2022-09-03T13:34:56;3.88;;;1.70;;
35205;SDS011;46555;45.620;13.796;2022-09-03T13:40:01;2.25;;;1.63;;
35205;SDS011;46555;45.620;13.796;2022-09-03T13:42:40;2.30;;;1.40;;
35205;SDS011;46555;45.620;13.796;2022-09-03T13:45:29;5.10;;;1.33;;
35205;SDS011;46555;45.620;13.796;2022-09-03T13:48:19;1.98;;;1.70;;
35205;SDS011;46555;45.620;13.796;2022-09-03T13:51:14;5.75;;;1.60;;
35205;SDS011;46555;45.620;13.796;2022-09-03T13:53:50;3.58;;;1.60;;
35205;SDS011;46555;45.620;13.796;2022-09-03T13:56:34;1.98;;;1.52;;
35205;SDS011;46555;45.620;13.796;2022-09-03T14:02:09;3.53;;;1.65;;
35205;SDS011;46555;45.620;13.796;2022-09-03T14:04:41;3.75;;;1.55;;
35205;SDS011;46555;45.620;13.796;2022-09-03T14:13:05;3.40;;;1.08;;
35205;SDS011;46555;45.620;13.796;2022-09-03T14:15:57;1.83;;;1.00;;
35205;SDS011;46555;45.620;13.796;2022-09-03T14:18:38;1.70;;;1.00;;
35205;SDS011;46555;45.620;13.796;2022-09-03T14:21:16;2.28;;;1.05;;
35205;SDS011;46555;45.620;13.796;2022-09-03T14:23:54;1.65;;;1.30;;
35205;SDS011;46555;45.620;13.796;2022-09-03T14:26:33;4.18;;;1.10;;
35205;SDS011;46555;45.620;13.796;2022-09-03T14:29:05;5.90;;;1.40;;
35205;SDS011;46555;45.620;13.796;2022-09-03T14:32:00;4.95;;;1.20;;
35205;SDS011;46555;45.620;13.796;2022-09-03T14:56:48;0.95;;;0.95;;
35205;SDS011;46555;45.620;13.796;2022-09-03T15:02:37;1.83;;;1.30;;
35205;SDS011;46555;45.620;13.796;2022-09-03T15:05:20;2.15;;;1.23;;
35205;SDS011;46555;45.620;13.796;2022-09-03T15:07:53;4.22;;;1.42;;
35205;SDS011;46555;45.620;13.796;2022-09-03T15:10:26;5.50;;;1.67;;
35205;SDS011;46555;45.620;13.796;2022-09-03T15:13:17;1.60;;;1.42;;
35205;SDS011;46555;45.620;13.796;2022-09-03T15:29:51;3.55;;;1.10;;
35205;SDS011;46555;45.620;13.796;2022-09-03T15:38:00;1.40;;;1.30;;
35205;SDS011;46555;45.620;13.796;2022-09-03T15:43:14;3.50;;;1.42;;
35205;SDS011;46555;45.620;13.796;2022-09-03T15:48:20;2.53;;;1.63;;
35205;SDS011;46555;45.620;13.796;2022-09-03T15:53:32;7.63;;;1.90;;
35205;SDS011;46555;45.620;13.796;2022-09-03T15:59:02;3.00;;;1.80;;
35205;SDS011;46555;45.620;13.796;2022-09-03T16:01:50;6.22;;;2.65;;
35205;SDS011;46555;45.620;13.796;2022-09-03T16:15:21;2.13;;;1.60;;
35205;SDS011;46555;45.620;13.796;2022-09-03T16:18:02;5.75;;;1.70;;
35205;SDS011;46555;45.620;13.796;2022-09-03T16:27:01;2.72;;;1.73;;
35205;SDS011;46555;45.620;13.796;2022-09-03T16:29:59;3.90;;;1.65;;
35205;SDS011;46555;45.620;13.796;2022-09-03T16:35:36;4.50;;;1.65;;
35205;SDS011;46555;45.620;13.796;2022-09-03T16:41:01;2.70;;;1.45;;
35205;SDS011;46555;45.620;13.796;2022-09-03T16:43:54;3.28;;;1.85;;
35205;SDS011;46555;45.620;13.796;2022-09-03T16:46:23;3.63;;;1.60;;
35205;SDS011;46555;45.620;13.796;2022-09-03T16:52:12;2.40;;;1.48;;
35205;SDS011;46555;45.620;13.796;2022-09-03T16:57:51;3.35;;;1.60;;
35205;SDS011;46555;45.620;13.796;2022-09-03T17:00:19;3.92;;;1.83;;
35205;SDS011;46555;45.620;13.796;2022-09-03T17:14:15;1.83;;;1.65;;
35205;SDS011;46555;45.620;13.796;2022-09-03T17:16:54;4.43;;;1.90;;
35205;SDS011;46555;45.620;13.796;2022-09-03T17:24:46;2.67;;;1.80;;
35205;SDS011;46555;45.620;13.796;2022-09-03T17:27:33;3.10;;;1.90;;
35205;SDS011;46555;45.620;13.796;2022-09-03T17:30:16;5.78;;;1.92;;
35205;SDS011;46555;45.620;13.796;2022-09-03T17:33:06;2.97;;;2.40;;
35205;SDS011;46555;45.620;13.796;2022-09-03T17:36:08;3.50;;;2.35;;
35205;SDS011;46555;45.620;13.796;2022-09-03T17:44:37;3.08;;;1.98;;
35205;SDS011;46555;45.620;13.796;2022-09-03T17:50:13;3.90;;;2.50;;
35205;SDS011;46555;45.620;13.796;2022-09-03T17:52:51;5.00;;;1.98;;
35205;SDS011;46555;45.620;13.796;2022-09-03T17:55:35;8.85;;;2.45;;
35205;SDS011;46555;45.620;13.796;2022-09-03T18:03:48;2.42;;;1.88;;
35205;SDS011;46555;45.620;13.796;2022-09-03T18:06:25;4.35;;;2.00;;
35205;SDS011;46555;45.620;13.796;2022-09-03T18:08:56;1.80;;;1.60;;
35205;SDS011;46555;45.620;13.796;2022-09-03T18:11:34;4.72;;;2.00;;
35205;SDS011;46555;45.620;13.796;2022-09-03T18:16:36;2.70;;;1.77;;
35205;SDS011;46555;45.620;13.796;2022-09-03T18:19:12;3.08;;;1.83;;
35205;SDS011;46555;45.620;13.796;2022-09-03T18:22:16;2.05;;;1.63;;
35205;SDS011;46555;45.620;13.796;2022-09-03T18:25:05;2.25;;;1.88;;
35205;SDS011;46555;45.620;13.796;2022-09-03T18:27:56;2.95;;;2.22;;
35205;SDS011;46555;45.620;13.796;2022-09-03T18:30:43;2.95;;;2.28;;
35205;SDS011;46555;45.620;13.796;2022-09-03T18:33:27;2.22;;;1.80;;
35205;SDS011;46555;45.620;13.796;2022-09-03T18:36:12;3.40;;;2.08;;
35205;SDS011;46555;45.620;13.796;2022-09-03T18:38:57;8.63;;;2.20;;
35205;SDS011;46555;45.620;13.796;2022-09-03T18:48:09;4.55;;;2.63;;
35205;SDS011;46555;45.620;13.796;2022-09-03T18:57:43;6.03;;;2.80;;
35205;SDS011;46555;45.620;13.796;2022-09-03T19:00:58;3.90;;;2.72;;
35205;SDS011;46555;45.620;13.796;2022-09-03T19:07:20;3.72;;;2.63;;
35205;SDS011;46555;45.620;13.796;2022-09-03T19:10:27;3.80;;;2.38;;
35205;SDS011;46555;45.620;13.796;2022-09-03T19:13:32;4.25;;;2.20;;
35205;SDS011;46555;45.620;13.796;2022-09-03T19:22:09;4.38;;;2.53;;
35205;SDS011;46555;45.620;13.796;2022-09-03T19:25:04;4.17;;;2.60;;
35205;SDS011;46555;45.620;13.796;2022-09-03T19:37:17;3.50;;;2.53;;
35205;SDS011;46555;45.620;13.796;2022-09-03T19:52:17;4.80;;;2.70;;
35205;SDS011;46555;45.620;13.796;2022-09-03T19:55:11;3.15;;;2.15;;
35205;SDS011;46555;45.620;13.796;2022-09-03T19:58:03;4.68;;;2.47;;
35205;SDS011;46555;45.620;13.796;2022-09-03T20:00:47;3.40;;;2.42;;
35205;SDS011;46555;45.620;13.796;2022-09-03T20:03:32;4.32;;;2.42;;
35205;SDS011;46555;45.620;13.796;2022-09-03T20:06:18;4.43;;;2.88;;
35205;SDS011;46555;45.620;13.796;2022-09-03T20:09:06;5.07;;;2.63;;
35205;SDS011;46555;45.620;13.796;2022-09-03T20:11:55;3.80;;;2.58;;
35205;SDS011;46555;45.620;13.796;2022-09-03T20:14:24;5.97;;;2.78;;
35205;SDS011;46555;45.620;13.796;2022-09-03T20:16:56;6.78;;;2.30;;
35205;SDS011;46555;45.620;13.796;2022-09-03T20:24:31;7.03;;;2.90;;